Baroda, Michigan
Current Conditions -  °F | °C
As of 10:53 AM on Saturday 22 Nov 2014 (Local Time) from KBEH Reporting Station
Moderate Rain Moderate Rain  
Wind Chill: 31°   Ceiling: 1200
Heat Index: 37°   Visibility: 2.5mi
Dew Point: 35°   Wind: 8mph
Humidity: 93%   Direction: 180°S
Pressure: 30.03"   Gusts: NA
Location:  41.96°N, 86.49°W
Report Text: KBEH 221553Z AUTO 18007KT 2 1/2SM RA BR OVC012 03/02 A3003 RMK AO2 RAB52 SLP175 P0000 T00280017
Loading
Personal Weather Stations






























Interactive Weather Map New forecast layout! Learn more

10-Day Weather Forecast

Advertisements
Track Severe Weather on mobile